createdAt,value
2023-05-02T00:00:45.448Z,12.70
2023-05-02T00:03:15.007Z,12.70
2023-05-02T00:05:44.168Z,12.60
2023-05-02T00:08:13.095Z,12.60
2023-05-02T00:10:41.057Z,12.50
2023-05-02T00:13:11.265Z,12.30
2023-05-02T00:15:40.149Z,12.40
2023-05-02T00:18:11.727Z,12.30
2023-05-02T00:20:41.379Z,12.30
2023-05-02T00:23:12.124Z,12.20
2023-05-02T00:25:46.541Z,12.20
2023-05-02T00:28:16.817Z,12.20
2023-05-02T00:30:45.768Z,12.10
2023-05-02T00:33:16.164Z,12.00
2023-05-02T00:35:45.608Z,12.00
2023-05-02T00:38:13.684Z,11.90
2023-05-02T00:40:46.717Z,11.80
2023-05-02T00:43:23.263Z,11.80
2023-05-02T00:45:52.345Z,11.80
2023-05-02T00:48:27.992Z,11.80
2023-05-02T00:50:57.283Z,11.70
2023-05-02T00:53:25.707Z,11.70
2023-05-02T00:56:01.875Z,11.60
2023-05-02T00:58:31.756Z,11.60
2023-05-02T01:01:16.743Z,11.40
2023-05-02T01:03:56.995Z,11.40
2023-05-02T01:06:39.979Z,11.60
2023-05-02T01:09:24.426Z,11.70
2023-05-02T01:12:05.592Z,11.70
2023-05-02T01:14:47.930Z,11.70
2023-05-02T01:17:18.657Z,11.60
2023-05-02T01:19:58.734Z,11.60
2023-05-02T01:22:29.371Z,11.60
2023-05-02T01:25:17.516Z,11.60
2023-05-02T01:28:01.776Z,11.60
2023-05-02T01:30:35.048Z,11.70
2023-05-02T01:33:04.472Z,11.70
2023-05-02T01:35:35.800Z,11.80
2023-05-02T01:38:08.329Z,11.90
2023-05-02T01:40:39.674Z,11.90
2023-05-02T01:43:16.233Z,11.90
2023-05-02T01:45:51.646Z,11.90
2023-05-02T01:48:21.975Z,11.90
2023-05-02T01:50:54.360Z,11.90
2023-05-02T01:53:24.213Z,11.90
2023-05-02T01:55:54.273Z,11.90
2023-05-02T01:58:25.205Z,11.90
2023-05-02T02:00:55.753Z,11.90
2023-05-02T02:03:25.187Z,11.80
2023-05-02T02:05:59.093Z,11.80
2023-05-02T02:08:30.398Z,11.70
2023-05-02T02:11:02.691Z,11.60
2023-05-02T02:13:42.766Z,11.50
2023-05-02T02:16:15.311Z,11.50
2023-05-02T02:18:46.833Z,11.40
2023-05-02T02:21:27.784Z,11.20
2023-05-02T02:24:01.435Z,11.20
2023-05-02T02:26:29.652Z,11.20
2023-05-02T02:28:57.986Z,11.20
2023-05-02T02:31:32.184Z,11.10
2023-05-02T02:34:00.986Z,11.00
2023-05-02T02:36:35.449Z,10.80
2023-05-02T02:39:23.024Z,10.80
2023-05-02T02:42:04.009Z,10.80
2023-05-02T02:44:45.024Z,10.80
2023-05-02T02:47:21.981Z,10.80
2023-05-02T02:49:59.325Z,10.80
2023-05-02T02:52:35.614Z,10.80
2023-05-02T02:55:13.506Z,10.70
2023-05-02T02:57:49.490Z,10.70
2023-05-02T03:00:23.208Z,10.70
2023-05-02T03:02:54.356Z,10.60
2023-05-02T03:05:26.960Z,10.60
2023-05-02T03:07:56.023Z,10.60
2023-05-02T03:10:25.185Z,10.60
2023-05-02T03:12:55.612Z,10.60
2023-05-02T03:15:40.997Z,10.50
2023-05-02T03:18:11.372Z,10.30
2023-05-02T03:20:40.131Z,10.20
2023-05-02T03:23:08.752Z,10.10
2023-05-02T03:25:36.888Z,10.00
2023-05-02T03:28:08.480Z,10.10
2023-05-02T03:30:40.669Z,10.10
2023-05-02T03:33:10.121Z,10.20
2023-05-02T03:35:38.565Z,10.20
2023-05-02T03:38:08.896Z,10.20
2023-05-02T03:40:37.047Z,10.30
2023-05-02T03:43:04.930Z,10.30
2023-05-02T03:45:36.187Z,10.40
2023-05-02T03:48:04.921Z,10.40
2023-05-02T03:50:34.576Z,10.40
2023-05-02T03:53:03.271Z,10.50
2023-05-02T03:55:31.575Z,10.60
2023-05-02T03:58:00.797Z,10.50
2023-05-02T04:00:28.872Z,10.50
2023-05-02T04:02:58.370Z,10.50
2023-05-02T04:05:26.448Z,10.60
2023-05-02T04:07:58.608Z,10.60
2023-05-02T04:10:27.068Z,10.70
2023-05-02T04:12:55.560Z,10.60
2023-05-02T04:15:24.366Z,10.60
2023-05-02T04:17:52.571Z,10.70
2023-05-02T04:20:21.043Z,10.60
2023-05-02T04:22:50.266Z,10.60
2023-05-02T04:25:23.305Z,10.60
2023-05-02T04:27:51.407Z,10.60
2023-05-02T04:30:20.212Z,10.70
2023-05-02T04:32:48.595Z,10.80
2023-05-02T04:35:18.912Z,10.80
2023-05-02T04:37:47.255Z,10.80
2023-05-02T04:40:15.915Z,10.80
2023-05-02T04:42:46.241Z,10.90
2023-05-02T04:45:14.614Z,10.90
2023-05-02T04:47:42.596Z,10.90
2023-05-02T04:50:11.972Z,10.90
2023-05-02T04:52:39.887Z,10.90
2023-05-02T04:55:09.411Z,11.00
2023-05-02T04:57:37.418Z,11.20
2023-05-02T05:00:08.117Z,11.20
2023-05-02T05:02:36.368Z,11.20
2023-05-02T05:05:04.740Z,11.20
2023-05-02T05:07:33.332Z,11.30
2023-05-02T05:10:02.242Z,11.30
2023-05-02T05:12:31.123Z,11.30
2023-05-02T05:14:59.983Z,11.30
2023-05-02T05:17:29.933Z,11.30
2023-05-02T05:19:59.927Z,11.40
2023-05-02T05:22:28.881Z,11.40
2023-05-02T05:24:57.804Z,11.40
2023-05-02T05:27:26.354Z,11.40
2023-05-02T05:29:55.016Z,11.40
2023-05-02T05:32:24.549Z,11.40
2023-05-02T05:34:56.860Z,11.40
2023-05-02T05:37:25.062Z,11.40
2023-05-02T05:39:54.781Z,11.40
2023-05-02T05:42:22.829Z,11.40
2023-05-02T05:44:54.239Z,11.40
2023-05-02T05:47:23.072Z,11.60
2023-05-02T05:49:56.015Z,11.60
2023-05-02T05:52:24.535Z,11.80
2023-05-02T05:55:01.102Z,11.90
2023-05-02T05:57:29.485Z,12.00
2023-05-02T05:59:57.877Z,12.10
2023-05-02T06:02:27.095Z,12.10
2023-05-02T06:04:57.454Z,12.20
2023-05-02T06:07:26.224Z,12.10
2023-05-02T06:09:56.790Z,12.10
2023-05-02T06:12:24.725Z,12.00
2023-05-02T06:14:53.159Z,12.10
2023-05-02T06:17:21.224Z,12.10
2023-05-02T06:19:49.316Z,12.10
2023-05-02T06:22:21.396Z,12.20
2023-05-02T06:24:49.312Z,12.20
2023-05-02T06:27:17.902Z,12.20
2023-05-02T06:29:45.907Z,12.40
2023-05-02T06:32:14.064Z,12.40
2023-05-02T06:34:42.165Z,12.40
2023-05-02T06:37:10.307Z,12.40
2023-05-02T06:39:40.011Z,12.60
2023-05-02T06:42:08.009Z,12.80
2023-05-02T06:44:36.258Z,13.00
2023-05-02T06:47:06.429Z,13.00
2023-05-02T06:49:35.212Z,13.10
2023-05-02T06:52:03.147Z,13.10
2023-05-02T06:54:31.458Z,13.00
2023-05-02T06:57:00.982Z,13.00
2023-05-02T06:59:29.440Z,12.90
2023-05-02T07:01:57.491Z,12.80
2023-05-02T07:04:26.287Z,12.90
2023-05-02T07:06:55.205Z,12.80
2023-05-02T07:09:23.830Z,12.80
2023-05-02T07:11:51.713Z,13.00
2023-05-02T07:14:21.623Z,13.00
2023-05-02T07:16:50.235Z,12.90
2023-05-02T07:19:18.270Z,12.90
2023-05-02T07:21:46.763Z,13.10
2023-05-02T07:24:14.641Z,13.10
2023-05-02T07:26:46.274Z,13.00
2023-05-02T07:29:14.650Z,13.30
2023-05-02T07:31:44.188Z,13.40
2023-05-02T07:34:12.703Z,13.40
2023-05-02T07:36:40.821Z,13.40
2023-05-02T07:39:08.811Z,13.20
2023-05-02T07:41:37.284Z,13.20
2023-05-02T07:44:05.439Z,13.20
2023-05-02T07:46:33.525Z,13.20
2023-05-02T07:49:02.924Z,13.30
2023-05-02T07:51:31.710Z,13.00
2023-05-02T07:53:59.785Z,12.90
2023-05-02T07:56:28.375Z,12.90
2023-05-02T07:58:56.243Z,12.70
2023-05-02T08:01:24.934Z,12.90
2023-05-02T08:03:53.107Z,12.70
2023-05-02T08:06:22.624Z,12.70
2023-05-02T08:08:52.128Z,12.60
2023-05-02T08:11:21.913Z,12.60
2023-05-02T08:13:55.189Z,12.50
2023-05-02T08:16:23.745Z,12.70
2023-05-02T08:18:52.568Z,12.60
2023-05-02T08:21:24.452Z,12.80
2023-05-02T08:23:52.768Z,12.80
2023-05-02T08:26:21.888Z,12.70
2023-05-02T08:28:50.911Z,12.80
2023-05-02T08:31:19.822Z,12.90
2023-05-02T08:33:48.391Z,13.40
2023-05-02T08:36:18.895Z,13.50
2023-05-02T08:38:56.952Z,13.50
2023-05-02T08:41:27.161Z,13.40
2023-05-02T08:44:00.795Z,13.00
2023-05-02T08:46:32.990Z,13.10
2023-05-02T08:49:02.345Z,13.30
2023-05-02T08:51:33.007Z,13.60
2023-05-02T08:54:05.372Z,13.60
2023-05-02T08:56:35.031Z,13.80
2023-05-02T08:59:02.997Z,13.90
2023-05-02T09:01:33.057Z,14.20
2023-05-02T09:04:01.077Z,14.20
2023-05-02T09:06:29.279Z,14.00
2023-05-02T09:09:04.469Z,13.70
2023-05-02T09:11:38.077Z,13.80
2023-05-02T09:14:16.420Z,13.90
2023-05-02T09:16:47.828Z,13.80
2023-05-02T09:19:28.758Z,13.80
2023-05-02T09:22:02.209Z,14.00
2023-05-02T09:24:30.625Z,14.30
2023-05-02T09:27:05.865Z,14.30
2023-05-02T09:29:37.992Z,14.30
2023-05-02T09:32:10.918Z,14.30
2023-05-02T09:34:42.427Z,14.50
2023-05-02T09:37:11.501Z,14.40
2023-05-02T09:39:40.504Z,14.30
2023-05-02T09:42:10.215Z,14.40
2023-05-02T09:44:51.004Z,14.10
2023-05-02T09:47:30.493Z,14.20
2023-05-02T09:50:00.379Z,14.40
2023-05-02T09:52:28.439Z,14.60
2023-05-02T09:54:56.524Z,14.30
2023-05-02T09:57:41.930Z,14.30
2023-05-02T10:00:20.649Z,14.40
2023-05-02T10:02:51.550Z,14.30
2023-05-02T10:05:21.022Z,14.70
2023-05-02T10:07:56.572Z,14.40
2023-05-02T10:10:25.819Z,14.60
2023-05-02T10:12:59.524Z,15.00
2023-05-02T10:15:30.755Z,15.30
2023-05-02T10:18:02.024Z,15.60
2023-05-02T10:20:37.258Z,15.90
2023-05-02T10:23:07.873Z,15.60
2023-05-02T10:25:37.288Z,15.60
2023-05-02T10:28:12.148Z,15.40
2023-05-02T10:30:42.143Z,15.30
2023-05-02T10:33:10.256Z,15.10
2023-05-02T10:35:49.753Z,15.20
2023-05-02T10:38:22.306Z,15.20
2023-05-02T10:40:57.282Z,15.20
2023-05-02T10:43:31.242Z,15.40
2023-05-02T10:45:59.725Z,15.50
2023-05-02T10:48:29.202Z,15.50
2023-05-02T10:51:00.046Z,15.90
2023-05-02T10:53:30.716Z,15.80
2023-05-02T10:56:20.999Z,16.00
2023-05-02T10:58:51.508Z,16.40
2023-05-02T11:01:38.039Z,16.80
2023-05-02T11:04:07.622Z,16.60
2023-05-02T11:06:37.786Z,16.70
2023-05-02T11:09:37.122Z,17.40
2023-05-02T11:12:08.585Z,17.80
2023-05-02T11:14:50.268Z,17.70
2023-05-02T11:17:21.212Z,17.40
2023-05-02T11:20:26.499Z,17.40
2023-05-02T11:22:56.393Z,17.90
2023-05-02T11:25:38.827Z,18.10
2023-05-02T11:28:10.150Z,18.20
2023-05-02T11:30:41.930Z,17.90
2023-05-02T11:33:19.110Z,17.40
2023-05-02T11:35:53.176Z,16.90
2023-05-02T11:38:22.593Z,16.60
2023-05-02T11:40:59.561Z,16.70
2023-05-02T11:43:31.764Z,16.80
2023-05-02T11:46:02.934Z,16.20
2023-05-02T11:48:32.261Z,15.60
2023-05-02T11:51:05.893Z,15.50
2023-05-02T11:53:34.343Z,15.20
2023-05-02T11:56:07.098Z,15.20
2023-05-02T11:58:37.066Z,15.10
2023-05-02T12:01:17.440Z,15.40
2023-05-02T12:03:46.043Z,15.70
2023-05-02T12:06:16.289Z,15.60
2023-05-02T12:08:47.423Z,15.70
2023-05-02T12:11:18.304Z,16.00
2023-05-02T12:13:50.103Z,16.70
2023-05-02T12:16:21.723Z,16.90
2023-05-02T12:18:50.021Z,16.90
2023-05-02T12:21:21.721Z,17.00
2023-05-02T12:23:50.990Z,16.60
2023-05-02T12:26:21.817Z,16.60
2023-05-02T12:28:51.883Z,16.50
2023-05-02T12:31:21.609Z,16.60
2023-05-02T12:33:52.824Z,16.30
2023-05-02T12:36:21.597Z,16.10
2023-05-02T12:38:53.794Z,16.20
2023-05-02T12:41:33.783Z,16.70
2023-05-02T12:44:05.639Z,17.10
2023-05-02T12:46:34.994Z,17.00
2023-05-02T12:49:04.096Z,16.70
2023-05-02T12:51:33.060Z,17.10
2023-05-02T12:54:04.781Z,17.00
2023-05-02T12:56:43.473Z,16.90
2023-05-02T12:59:26.146Z,16.80
2023-05-02T13:01:55.517Z,16.80
2023-05-02T13:04:23.540Z,16.60
2023-05-02T13:06:51.647Z,16.40
2023-05-02T13:09:20.719Z,16.40
2023-05-02T13:11:49.222Z,16.40
2023-05-02T13:14:17.197Z,16.10
2023-05-02T13:16:45.264Z,16.50
2023-05-02T13:19:16.106Z,17.00
2023-05-02T13:21:44.072Z,17.10
2023-05-02T13:24:15.106Z,17.20
2023-05-02T13:26:44.241Z,17.20
2023-05-02T13:29:12.773Z,17.10
2023-05-02T13:31:40.969Z,17.20
2023-05-02T13:34:12.659Z,17.10
2023-05-02T13:36:46.609Z,17.40
2023-05-02T13:39:15.048Z,17.20
2023-05-02T13:41:43.218Z,17.20
2023-05-02T13:44:18.396Z,17.20
2023-05-02T13:46:46.444Z,17.30
2023-05-02T13:49:14.532Z,16.70
2023-05-02T13:51:48.655Z,16.80
2023-05-02T13:54:17.428Z,16.90
2023-05-02T13:56:46.373Z,17.10
2023-05-02T13:59:19.971Z,16.50
2023-05-02T14:01:49.023Z,16.80
2023-05-02T14:04:17.011Z,17.10
2023-05-02T14:06:46.620Z,17.20
2023-05-02T14:09:15.576Z,17.30
2023-05-02T14:11:47.511Z,17.50
2023-05-02T14:19:39.739Z,17.70
2023-05-02T14:24:43.443Z,17.80
2023-05-02T14:27:13.026Z,17.40
2023-05-02T14:29:41.055Z,17.60
2023-05-02T14:32:09.167Z,17.60
2023-05-02T14:34:37.211Z,17.60
2023-05-02T14:37:06.103Z,17.90
2023-05-02T14:39:34.271Z,18.30
2023-05-02T14:42:07.670Z,18.20
2023-05-02T14:44:35.670Z,18.20
2023-05-02T14:47:03.909Z,18.30
2023-05-02T14:49:31.953Z,17.70
2023-05-02T14:52:00.226Z,17.50
2023-05-02T14:54:29.716Z,17.70
2023-05-02T14:57:03.942Z,17.90
2023-05-02T14:59:35.909Z,17.80
2023-05-02T15:02:04.166Z,18.00
2023-05-02T15:04:32.792Z,18.20
2023-05-02T15:07:01.667Z,18.00
2023-05-02T15:09:30.282Z,18.20
2023-05-02T15:11:58.346Z,17.80
2023-05-02T15:14:26.446Z,17.20
2023-05-02T15:16:56.294Z,17.50
2023-05-02T15:19:25.155Z,16.90
2023-05-02T15:21:53.212Z,16.90
2023-05-02T15:24:22.386Z,16.80
2023-05-02T15:26:50.431Z,17.10
2023-05-02T15:29:20.436Z,17.10
2023-05-02T15:31:48.633Z,17.20
2023-05-02T15:34:17.993Z,16.90
2023-05-02T15:36:54.372Z,16.80
2023-05-02T15:39:26.386Z,17.20
2023-05-02T15:41:57.004Z,16.90
2023-05-02T15:44:28.045Z,17.20
2023-05-02T15:46:56.209Z,16.70
2023-05-02T15:49:31.612Z,16.60
2023-05-02T15:52:00.198Z,16.70
2023-05-02T15:54:32.854Z,16.60
2023-05-02T15:57:03.249Z,16.50
2023-05-02T15:59:31.744Z,16.80
2023-05-02T16:01:59.755Z,16.50
2023-05-02T16:04:29.167Z,16.40
2023-05-02T16:06:57.358Z,16.40
2023-05-02T16:09:25.562Z,16.20
2023-05-02T16:11:54.443Z,16.30
2023-05-02T16:14:24.130Z,16.60
2023-05-02T16:16:52.162Z,16.70
2023-05-02T16:19:22.971Z,16.20
2023-05-02T16:21:52.717Z,16.20
2023-05-02T16:24:20.680Z,16.40
2023-05-02T16:26:48.739Z,16.50
2023-05-02T16:29:19.977Z,16.10
2023-05-02T16:31:49.093Z,16.10
2023-05-02T16:34:17.033Z,16.00
2023-05-02T16:36:46.708Z,15.90
2023-05-02T16:39:16.380Z,16.10
2023-05-02T16:41:44.987Z,16.10
2023-05-02T16:44:13.532Z,15.90
2023-05-02T16:46:42.617Z,15.80
2023-05-02T16:49:12.620Z,15.90
2023-05-02T16:51:42.297Z,16.10
2023-05-02T16:54:10.709Z,16.10
2023-05-02T16:56:44.465Z,16.20
2023-05-02T16:59:12.490Z,16.30
2023-05-02T17:01:47.257Z,16.50
2023-05-02T17:04:16.763Z,16.40
2023-05-02T17:06:45.032Z,16.40
2023-05-02T17:09:13.531Z,16.60
2023-05-02T17:11:42.936Z,16.60
2023-05-02T17:14:13.366Z,16.60
2023-05-02T17:16:42.425Z,17.00
2023-05-02T17:19:10.462Z,17.10
2023-05-02T17:21:38.810Z,17.30
2023-05-02T17:24:11.351Z,17.60
2023-05-02T17:26:40.531Z,17.70
2023-05-02T17:29:10.329Z,17.60
2023-05-02T17:31:44.917Z,17.70
2023-05-02T17:34:28.477Z,17.50
2023-05-02T17:36:57.442Z,17.90
2023-05-02T17:39:25.430Z,17.90
2023-05-02T17:41:56.562Z,17.70
2023-05-02T17:44:25.889Z,17.40
2023-05-02T17:46:55.430Z,16.90
2023-05-02T17:49:24.332Z,17.00
2023-05-02T17:51:52.949Z,15.10
2023-05-02T17:54:24.486Z,14.00
2023-05-02T17:56:55.636Z,13.60
2023-05-02T17:59:25.322Z,13.50
2023-05-02T18:01:54.148Z,13.50
2023-05-02T18:04:25.341Z,13.40
2023-05-02T18:06:53.249Z,13.30
2023-05-02T18:09:21.516Z,13.30
2023-05-02T18:11:49.422Z,13.20
2023-05-02T18:14:36.580Z,13.10
2023-05-02T18:17:09.687Z,13.00
2023-05-02T18:19:37.990Z,13.00
2023-05-02T18:22:07.193Z,12.90
2023-05-02T18:24:35.876Z,12.80
2023-05-02T18:27:06.439Z,12.80
2023-05-02T18:29:37.366Z,12.80
2023-05-02T18:32:07.162Z,12.70
2023-05-02T18:34:38.437Z,12.50
2023-05-02T18:37:11.102Z,12.40
2023-05-02T18:39:39.145Z,12.40
2023-05-02T18:42:08.368Z,12.40
2023-05-02T18:44:44.872Z,12.30
2023-05-02T18:47:16.913Z,12.30
2023-05-02T18:49:44.919Z,12.20
2023-05-02T18:52:19.537Z,12.20
2023-05-02T18:54:51.450Z,12.20
2023-05-02T18:57:19.765Z,12.10
2023-05-02T18:59:48.327Z,12.10
2023-05-02T19:02:29.685Z,12.00
2023-05-02T19:05:06.629Z,11.90
2023-05-02T19:07:36.947Z,11.90
2023-05-02T19:10:15.535Z,11.90
2023-05-02T19:12:53.973Z,11.70
2023-05-02T19:15:28.983Z,11.60
2023-05-02T19:17:58.946Z,11.50
2023-05-02T19:20:32.926Z,11.50
2023-05-02T19:25:51.450Z,11.40
2023-05-02T19:28:19.783Z,11.30
2023-05-02T19:30:56.312Z,11.10
2023-05-02T19:33:25.817Z,11.10
2023-05-02T19:35:54.635Z,11.00
2023-05-02T19:38:23.003Z,11.00
2023-05-02T19:40:54.926Z,10.80
2023-05-02T19:43:23.049Z,10.60
2023-05-02T19:45:56.556Z,10.40
2023-05-02T19:48:26.217Z,10.40
2023-05-02T19:50:54.471Z,10.60
2023-05-02T19:53:25.805Z,10.60
2023-05-02T19:55:54.426Z,10.70
2023-05-02T19:58:22.986Z,10.70
2023-05-02T20:00:57.880Z,10.60
2023-05-02T20:03:28.296Z,10.50
2023-05-02T20:05:58.296Z,10.70
2023-05-02T20:08:28.200Z,10.50
2023-05-02T20:10:56.676Z,10.60
2023-05-02T20:13:33.858Z,10.40
2023-05-02T20:16:23.940Z,10.30
2023-05-02T20:19:10.887Z,10.20
2023-05-02T20:22:03.147Z,10.20
2023-05-02T20:24:31.334Z,10.10
2023-05-02T20:26:59.513Z,10.00
2023-05-02T20:29:27.534Z,9.90
2023-05-02T20:31:56.665Z,9.80
2023-05-02T20:34:26.150Z,10.00
2023-05-02T20:36:54.252Z,10.00
2023-05-02T20:39:22.591Z,9.80
2023-05-02T20:41:50.672Z,9.70
2023-05-02T20:44:20.854Z,9.90
2023-05-02T20:46:48.967Z,9.80
2023-05-02T20:49:16.999Z,9.70
2023-05-02T20:51:50.473Z,9.70
2023-05-02T20:54:20.689Z,9.60
2023-05-02T20:56:48.853Z,9.40
2023-05-02T20:59:17.854Z,9.40
2023-05-02T21:01:49.956Z,9.20
2023-05-02T21:04:17.965Z,9.00
2023-05-02T21:06:49.395Z,9.10
2023-05-02T21:09:28.630Z,9.20
2023-05-02T21:11:57.025Z,9.10
2023-05-02T21:14:25.962Z,9.10
2023-05-02T21:16:56.353Z,9.10
2023-05-02T21:19:24.738Z,9.00
2023-05-02T21:21:54.141Z,9.00
2023-05-02T21:24:23.116Z,9.00
2023-05-02T21:26:51.091Z,8.80
2023-05-02T21:29:20.416Z,8.70
2023-05-02T21:31:57.435Z,8.80
2023-05-02T21:34:25.680Z,8.70
2023-05-02T21:36:58.182Z,8.70
2023-05-02T21:39:26.257Z,8.50
2023-05-02T21:41:54.224Z,8.50
2023-05-02T21:44:22.152Z,8.30
2023-05-02T21:46:50.557Z,8.20
2023-05-02T21:49:18.669Z,8.40
2023-05-02T21:51:46.701Z,8.50
2023-05-02T21:54:16.083Z,8.30
2023-05-02T21:56:44.626Z,8.10
2023-05-02T21:59:12.609Z,8.00
2023-05-02T22:01:40.651Z,8.00
2023-05-02T22:04:09.128Z,8.10
2023-05-02T22:06:37.406Z,8.20
2023-05-02T22:09:05.537Z,8.40
2023-05-02T22:11:34.895Z,8.20
2023-05-02T22:14:03.035Z,8.20
2023-05-02T22:16:31.086Z,8.20
2023-05-02T22:18:59.260Z,8.10
2023-05-02T22:21:27.352Z,8.00
2023-05-02T22:23:55.627Z,7.80
2023-05-02T22:26:23.876Z,7.80
2023-05-02T22:28:53.198Z,7.70
2023-05-02T22:31:21.426Z,7.50
2023-05-02T22:33:50.139Z,7.40
2023-05-02T22:36:18.248Z,7.60
2023-05-02T22:38:46.174Z,7.60
2023-05-02T22:41:14.073Z,7.60
2023-05-02T22:43:42.005Z,7.60
2023-05-02T22:46:11.422Z,7.60
2023-05-02T22:48:39.496Z,7.60
2023-05-02T22:51:07.716Z,7.60
2023-05-02T22:53:35.693Z,7.50
2023-05-02T22:56:04.384Z,7.40
2023-05-02T22:58:32.398Z,7.40
2023-05-02T23:01:00.363Z,7.40
2023-05-02T23:03:29.916Z,7.40
2023-05-02T23:05:57.974Z,7.30
2023-05-02T23:08:26.522Z,7.30
2023-05-02T23:10:54.474Z,7.20
2023-05-02T23:13:22.515Z,7.00
2023-05-02T23:15:53.865Z,7.00
2023-05-02T23:18:22.220Z,7.00
2023-05-02T23:20:52.334Z,7.00
2023-05-02T23:23:20.285Z,7.00
2023-05-02T23:25:48.423Z,6.90
2023-05-02T23:28:16.429Z,7.10
2023-05-02T23:30:44.777Z,6.90
2023-05-02T23:33:12.963Z,7.00
2023-05-02T23:35:40.948Z,7.00
2023-05-02T23:38:10.355Z,6.80
2023-05-02T23:40:38.410Z,7.00
2023-05-02T23:43:07.686Z,6.90
2023-05-02T23:45:35.688Z,6.70
2023-05-02T23:48:03.953Z,6.70
2023-05-02T23:50:32.882Z,6.70
2023-05-02T23:53:01.217Z,6.70
2023-05-02T23:55:30.810Z,6.60
2023-05-02T23:57:58.913Z,6.40
